Trace, Kentucky
Current Conditions -  °F | °C
As of 2:35 PM on Friday 31 Oct 2014 (Local Time) from KFGX Reporting Station
Light Rain Light Rain  
Wind Chill: 41°   Ceiling: 1200
Heat Index: 45°   Visibility: 7mi
Dew Point: 43°   Wind: 7mph
Humidity: 93%   Direction: 270°W
Pressure: 29.89"   Gusts: NA
Location:  38.4929°N, 83.3898°W
Report Text: KFGX 311835Z AUTO 27006KT 7SM -RA BKN012 OVC018 07/06 A2989 RMK AO2 T00730062
Loading
Personal Weather Stations






























Interactive Weather Map
Tropical Storm Tracking
New forecast layout! Learn more

10-Day Weather Forecast

Advertisements
Track Severe Weather on mobile